createdAt,value
2023-05-01T00:00:10.320Z,523.00
2023-05-01T00:01:10.318Z,522.00
2023-05-01T00:02:10.305Z,528.00
2023-05-01T00:03:10.402Z,533.00
2023-05-01T00:04:10.488Z,533.00
2023-05-01T00:05:10.403Z,531.00
2023-05-01T00:06:10.304Z,533.00
2023-05-01T00:07:10.266Z,533.00
2023-05-01T00:08:10.256Z,533.00
2023-05-01T00:09:10.255Z,539.00
2023-05-01T00:10:10.255Z,542.00
2023-05-01T00:11:10.255Z,541.00
2023-05-01T00:12:10.231Z,539.00
2023-05-01T00:13:10.251Z,539.00
2023-05-01T00:14:10.206Z,545.00
2023-05-01T00:15:10.226Z,538.00
2023-05-01T00:16:10.315Z,541.00
2023-05-01T00:17:10.210Z,544.00
2023-05-01T00:18:10.233Z,546.00
2023-05-01T00:19:10.211Z,550.00
2023-05-01T00:20:10.198Z,554.00
2023-05-01T00:21:10.173Z,549.00
2023-05-01T00:22:10.187Z,541.00
2023-05-01T00:23:10.141Z,543.00
2023-05-01T00:24:10.174Z,547.00
2023-05-01T00:25:10.155Z,553.00
2023-05-01T00:26:10.135Z,557.00
2023-05-01T00:27:10.156Z,555.00
2023-05-01T00:28:10.150Z,564.00
2023-05-01T00:29:10.136Z,557.00
2023-05-01T00:30:10.140Z,561.00
2023-05-01T00:31:10.120Z,562.00
2023-05-01T00:32:10.303Z,556.00
2023-05-01T00:33:10.310Z,558.00
2023-05-01T00:34:10.096Z,569.00
2023-05-01T00:35:10.072Z,566.00
2023-05-01T00:36:10.078Z,563.00
2023-05-01T00:37:10.067Z,568.00
2023-05-01T00:38:10.049Z,556.00
2023-05-01T00:39:10.030Z,565.00
2023-05-01T00:40:10.066Z,560.00
2023-05-01T00:41:10.037Z,564.00
2023-05-01T00:42:10.022Z,564.00
2023-05-01T00:43:10.017Z,567.00
2023-05-01T00:44:10.018Z,562.00
2023-05-01T00:45:09.991Z,561.00
2023-05-01T00:46:10.147Z,559.00
2023-05-01T00:47:10.014Z,562.00
2023-05-01T00:48:10.186Z,568.00
2023-05-01T00:49:09.986Z,562.00
2023-05-01T00:50:09.963Z,565.00
2023-05-01T00:51:09.996Z,569.00
2023-05-01T00:52:09.977Z,570.00
2023-05-01T00:53:09.968Z,569.00
2023-05-01T00:54:09.981Z,567.00
2023-05-01T00:55:09.951Z,578.00
2023-05-01T00:56:09.999Z,571.00
2023-05-01T00:57:09.928Z,574.00
2023-05-01T00:58:09.936Z,571.00
2023-05-01T00:59:09.926Z,582.00
2023-05-01T01:00:09.892Z,583.00
2023-05-01T01:01:10.036Z,583.00
2023-05-01T01:02:09.887Z,586.00
2023-05-01T01:03:09.974Z,624.00
2023-05-01T01:04:09.960Z,649.00
2023-05-01T01:05:09.877Z,710.00
2023-05-01T01:06:09.905Z,728.00
2023-05-01T01:07:09.853Z,718.00
2023-05-01T01:08:09.841Z,715.00
2023-05-01T01:09:09.879Z,654.00
2023-05-01T01:10:09.893Z,652.00
2023-05-01T01:11:09.843Z,659.00
2023-05-01T01:12:09.845Z,677.00
2023-05-01T01:13:09.836Z,673.00
2023-05-01T01:14:09.812Z,669.00
2023-05-01T01:15:09.815Z,663.00
2023-05-01T01:16:09.821Z,685.00
2023-05-01T01:17:09.980Z,671.00
2023-05-01T01:18:09.868Z,675.00
2023-05-01T01:19:09.780Z,665.00
2023-05-01T01:20:09.786Z,662.00
2023-05-01T01:21:09.795Z,659.00
2023-05-01T01:22:09.865Z,666.00
2023-05-01T01:23:09.917Z,675.00
2023-05-01T01:24:09.948Z,664.00
2023-05-01T01:25:09.997Z,670.00
2023-05-01T01:26:10.092Z,664.00
2023-05-01T01:27:10.114Z,659.00
2023-05-01T01:28:10.145Z,666.00
2023-05-01T01:29:10.206Z,677.00
2023-05-01T01:30:10.266Z,696.00
2023-05-01T01:31:10.428Z,687.00
2023-05-01T01:32:10.351Z,676.00
2023-05-01T01:33:10.500Z,685.00
2023-05-01T01:34:10.409Z,674.00
2023-05-01T01:35:10.381Z,680.00
2023-05-01T01:36:10.427Z,689.00
2023-05-01T01:37:10.449Z,692.00
2023-05-01T01:38:10.417Z,693.00
2023-05-01T01:39:10.462Z,679.00
2023-05-01T01:40:10.477Z,705.00
2023-05-01T01:41:10.534Z,709.00
2023-05-01T01:42:10.590Z,687.00
2023-05-01T01:43:10.628Z,711.00
2023-05-01T01:44:10.637Z,705.00
2023-05-01T01:45:10.682Z,682.00
2023-05-01T01:46:10.843Z,702.00
2023-05-01T01:47:10.750Z,705.00
2023-05-01T01:48:10.836Z,699.00
2023-05-01T01:49:10.802Z,696.00
2023-05-01T01:50:10.812Z,704.00
2023-05-01T01:51:10.884Z,724.00
2023-05-01T01:52:10.904Z,702.00
2023-05-01T01:53:10.927Z,715.00
2023-05-01T01:54:10.936Z,719.00
2023-05-01T01:55:10.983Z,709.00
2023-05-01T01:56:10.962Z,697.00
2023-05-01T01:57:11.005Z,697.00
2023-05-01T01:58:11.047Z,689.00
2023-05-01T01:59:11.082Z,690.00
2023-05-01T02:00:11.118Z,682.00
2023-05-01T02:01:11.143Z,696.00
2023-05-01T02:02:11.248Z,693.00
2023-05-01T02:03:11.267Z,696.00
2023-05-01T02:04:11.265Z,696.00
2023-05-01T02:05:11.178Z,696.00
2023-05-01T02:06:11.349Z,680.00
2023-05-01T02:07:11.286Z,692.00
2023-05-01T02:08:11.254Z,676.00
2023-05-01T02:09:11.253Z,666.00
2023-05-01T02:10:11.294Z,678.00
2023-05-01T02:11:11.327Z,675.00
2023-05-01T02:12:11.341Z,684.00
2023-05-01T02:13:11.336Z,689.00
2023-05-01T02:14:11.351Z,685.00
2023-05-01T02:15:11.372Z,702.00
2023-05-01T02:16:11.465Z,696.00
2023-05-01T02:17:11.382Z,696.00
2023-05-01T02:18:11.417Z,699.00
2023-05-01T02:19:11.423Z,693.00
2023-05-01T02:20:11.469Z,704.00
2023-05-01T02:21:11.498Z,699.00
2023-05-01T02:22:11.497Z,701.00
2023-05-01T02:23:11.507Z,715.00
2023-05-01T02:24:11.469Z,695.00
2023-05-01T02:25:11.512Z,694.00
2023-05-01T02:26:11.763Z,702.00
2023-05-01T02:27:11.558Z,710.00
2023-05-01T02:28:11.569Z,704.00
2023-05-01T02:29:11.609Z,713.00
2023-05-01T02:30:11.602Z,710.00
2023-05-01T02:31:11.656Z,709.00
2023-05-01T02:32:11.627Z,711.00
2023-05-01T02:33:11.699Z,706.00
2023-05-01T02:34:11.644Z,696.00
2023-05-01T02:35:11.662Z,712.00
2023-05-01T02:36:11.651Z,684.00
2023-05-01T02:37:11.666Z,688.00
2023-05-01T02:38:11.676Z,707.00
2023-05-01T02:39:11.725Z,708.00
2023-05-01T02:40:11.720Z,695.00
2023-05-01T02:41:11.736Z,683.00
2023-05-01T02:42:11.737Z,710.00
2023-05-01T02:43:11.766Z,706.00
2023-05-01T02:44:11.851Z,696.00
2023-05-01T02:45:11.803Z,679.00
2023-05-01T02:46:11.878Z,696.00
2023-05-01T02:47:11.908Z,698.00
2023-05-01T02:48:11.910Z,686.00
2023-05-01T02:49:11.901Z,700.00
2023-05-01T02:50:11.904Z,702.00
2023-05-01T02:51:11.924Z,687.00
2023-05-01T02:52:11.964Z,688.00
2023-05-01T02:53:11.960Z,700.00
2023-05-01T02:54:11.958Z,717.00
2023-05-01T02:55:11.949Z,696.00
2023-05-01T02:56:11.987Z,708.00
2023-05-01T02:57:12.115Z,687.00
2023-05-01T02:58:12.023Z,702.00
2023-05-01T02:59:12.021Z,718.00
2023-05-01T03:00:12.058Z,718.00
2023-05-01T03:01:12.092Z,690.00
2023-05-01T03:02:12.117Z,696.00
2023-05-01T03:03:12.221Z,694.00
2023-05-01T03:04:12.203Z,683.00
2023-05-01T03:05:12.177Z,691.00
2023-05-01T03:06:12.221Z,671.00
2023-05-01T03:07:12.212Z,652.00
2023-05-01T03:08:12.250Z,651.00
2023-05-01T03:09:12.265Z,675.00
2023-05-01T03:10:12.356Z,668.00
2023-05-01T03:11:12.308Z,664.00
2023-05-01T03:12:12.297Z,675.00
2023-05-01T03:13:12.369Z,666.00
2023-05-01T03:14:12.366Z,682.00
2023-05-01T03:15:12.433Z,676.00
2023-05-01T03:16:12.458Z,677.00
2023-05-01T03:17:12.450Z,691.00
2023-05-01T03:18:12.514Z,664.00
2023-05-01T03:19:12.489Z,657.00
2023-05-01T03:20:12.508Z,663.00
2023-05-01T03:21:12.506Z,665.00
2023-05-01T03:22:12.530Z,660.00
2023-05-01T03:23:12.562Z,678.00
2023-05-01T03:24:12.561Z,679.00
2023-05-01T03:25:12.609Z,671.00
2023-05-01T03:26:12.626Z,673.00
2023-05-01T03:27:12.633Z,699.00
2023-05-01T03:28:12.693Z,679.00
2023-05-01T03:29:12.683Z,664.00
2023-05-01T03:30:12.734Z,671.00
2023-05-01T03:31:12.788Z,661.00
2023-05-01T03:32:12.849Z,660.00
2023-05-01T03:33:12.857Z,670.00
2023-05-01T03:34:12.830Z,663.00
2023-05-01T03:35:12.891Z,672.00
2023-05-01T03:36:12.876Z,672.00
2023-05-01T03:37:12.897Z,662.00
2023-05-01T03:38:12.887Z,659.00
2023-05-01T03:39:12.880Z,672.00
2023-05-01T03:40:12.897Z,675.00
2023-05-01T03:41:12.903Z,661.00
2023-05-01T03:42:12.900Z,661.00
2023-05-01T03:43:12.899Z,670.00
2023-05-01T03:44:12.914Z,666.00
2023-05-01T03:45:12.956Z,696.00
2023-05-01T03:46:13.015Z,678.00
2023-05-01T03:47:13.008Z,669.00
2023-05-01T03:48:13.076Z,677.00
2023-05-01T03:49:13.088Z,667.00
2023-05-01T03:50:13.099Z,676.00
2023-05-01T03:51:13.140Z,709.00
2023-05-01T03:52:13.156Z,702.00
2023-05-01T03:53:13.193Z,662.00
2023-05-01T03:54:13.209Z,683.00
2023-05-01T03:55:13.246Z,696.00
2023-05-01T03:56:13.291Z,666.00
2023-05-01T03:57:13.298Z,659.00
2023-05-01T03:58:13.350Z,654.00
2023-05-01T03:59:13.385Z,690.00
2023-05-01T04:00:13.403Z,690.00
2023-05-01T04:01:13.453Z,672.00
2023-05-01T04:02:13.489Z,708.00
2023-05-01T04:03:13.534Z,735.00
2023-05-01T04:04:13.619Z,707.00
2023-05-01T04:05:13.596Z,713.00
2023-05-01T04:06:13.647Z,705.00
2023-05-01T04:07:13.642Z,719.00
2023-05-01T04:08:13.657Z,709.00
2023-05-01T04:09:13.685Z,727.00
2023-05-01T04:10:13.743Z,742.00
2023-05-01T04:11:13.762Z,704.00
2023-05-01T04:12:13.755Z,704.00
2023-05-01T04:13:13.810Z,734.00
2023-05-01T04:14:13.857Z,708.00
2023-05-01T04:15:15.498Z,728.00
2023-05-01T04:16:13.952Z,743.00
2023-05-01T04:17:13.970Z,723.00
2023-05-01T04:18:14.030Z,727.00
2023-05-01T04:19:13.989Z,719.00
2023-05-01T04:20:14.046Z,725.00
2023-05-01T04:21:14.100Z,732.00
2023-05-01T04:22:14.110Z,723.00
2023-05-01T04:23:14.131Z,706.00
2023-05-01T04:24:14.195Z,715.00
2023-05-01T04:25:14.224Z,712.00
2023-05-01T04:26:14.265Z,706.00
2023-05-01T04:27:14.294Z,726.00
2023-05-01T04:28:14.337Z,718.00
2023-05-01T04:29:14.361Z,717.00
2023-05-01T04:30:14.402Z,700.00
2023-05-01T04:31:14.499Z,702.00
2023-05-01T04:32:14.493Z,696.00
2023-05-01T04:33:14.533Z,721.00
2023-05-01T04:34:14.566Z,753.00
2023-05-01T04:35:14.615Z,729.00
2023-05-01T04:36:14.640Z,744.00
2023-05-01T04:37:14.677Z,722.00
2023-05-01T04:38:14.738Z,696.00
2023-05-01T04:39:14.757Z,738.00
2023-05-01T04:40:14.822Z,736.00
2023-05-01T04:41:14.832Z,737.00
2023-05-01T04:42:14.923Z,723.00
2023-05-01T04:43:14.913Z,744.00
2023-05-01T04:44:14.998Z,727.00
2023-05-01T04:45:15.003Z,715.00
2023-05-01T04:46:15.169Z,709.00
2023-05-01T04:47:15.110Z,763.00
2023-05-01T04:48:15.170Z,763.00
2023-05-01T04:49:15.187Z,746.00
2023-05-01T04:50:15.217Z,732.00
2023-05-01T04:51:15.278Z,713.00
2023-05-01T04:52:15.316Z,726.00
2023-05-01T04:53:15.328Z,740.00
2023-05-01T04:54:15.377Z,718.00
2023-05-01T04:55:15.431Z,738.00
2023-05-01T04:56:15.468Z,751.00
2023-05-01T04:57:15.557Z,727.00
2023-05-01T04:58:15.563Z,716.00
2023-05-01T04:59:16.318Z,732.00
2023-05-01T05:00:15.659Z,716.00
2023-05-01T05:01:22.946Z,755.00
2023-05-01T05:02:15.735Z,757.00
2023-05-01T05:03:15.734Z,757.00
2023-05-01T05:04:15.682Z,763.00
2023-05-01T05:05:15.746Z,757.00
2023-05-01T05:06:15.721Z,744.00
2023-05-01T05:07:15.674Z,715.00
2023-05-01T05:08:15.655Z,696.00
2023-05-01T05:09:17.415Z,737.00
2023-05-01T05:10:15.684Z,755.00
2023-05-01T05:11:15.641Z,743.00
2023-05-01T05:12:15.632Z,734.00
2023-05-01T05:13:15.618Z,731.00
2023-05-01T05:14:15.624Z,726.00
2023-05-01T05:15:15.592Z,736.00
2023-05-01T05:16:15.697Z,742.00
2023-05-01T05:17:15.608Z,733.00
2023-05-01T05:18:15.642Z,738.00
2023-05-01T05:19:15.577Z,716.00
2023-05-01T05:20:15.587Z,724.00
2023-05-01T05:21:15.562Z,700.00
2023-05-01T05:22:15.554Z,713.00
2023-05-01T05:23:15.543Z,700.00
2023-05-01T05:24:15.561Z,706.00
2023-05-01T05:25:15.575Z,691.00
2023-05-01T05:26:15.541Z,715.00
2023-05-01T05:27:15.502Z,693.00
2023-05-01T05:28:15.517Z,679.00
2023-05-01T05:29:15.517Z,697.00
2023-05-01T05:30:15.515Z,733.00
2023-05-01T05:31:15.485Z,755.00
2023-05-01T05:32:15.537Z,715.00
2023-05-01T05:33:15.516Z,689.00
2023-05-01T05:34:15.474Z,713.00
2023-05-01T05:35:15.484Z,723.00
2023-05-01T05:36:15.478Z,731.00
2023-05-01T05:37:15.455Z,714.00
2023-05-01T05:38:15.447Z,694.00
2023-05-01T05:39:15.452Z,697.00
2023-05-01T05:40:15.460Z,681.00
2023-05-01T05:41:15.446Z,693.00
2023-05-01T05:42:15.407Z,693.00
2023-05-01T05:43:15.422Z,686.00
2023-05-01T05:44:15.433Z,688.00
2023-05-01T05:45:22.427Z,715.00
2023-05-01T05:46:15.403Z,717.00
2023-05-01T05:47:15.398Z,721.00
2023-05-01T05:48:15.495Z,724.00
2023-05-01T05:49:15.427Z,720.00
2023-05-01T05:50:15.387Z,701.00
2023-05-01T05:51:15.422Z,705.00
2023-05-01T05:52:15.403Z,707.00
2023-05-01T05:53:15.361Z,714.00
2023-05-01T05:54:15.354Z,731.00
2023-05-01T05:55:15.373Z,740.00
2023-05-01T05:56:15.321Z,725.00
2023-05-01T05:57:15.329Z,723.00
2023-05-01T05:58:15.339Z,721.00
2023-05-01T05:59:17.264Z,717.00
2023-05-01T06:00:15.301Z,730.00
2023-05-01T06:01:15.333Z,727.00
2023-05-01T06:02:15.314Z,716.00
2023-05-01T06:03:15.409Z,719.00
2023-05-01T06:04:15.424Z,761.00
2023-05-01T06:05:15.519Z,736.00
2023-05-01T06:06:15.587Z,721.00
2023-05-01T06:07:15.599Z,714.00
2023-05-01T06:08:15.625Z,712.00
2023-05-01T06:09:15.674Z,743.00
2023-05-01T06:10:15.766Z,750.00
2023-05-01T06:11:15.823Z,755.00
2023-05-01T06:12:15.908Z,752.00
2023-05-01T06:13:15.943Z,745.00
2023-05-01T06:14:16.003Z,749.00
2023-05-01T06:15:16.048Z,710.00
2023-05-01T06:16:16.123Z,722.00
2023-05-01T06:17:16.199Z,764.00
2023-05-01T06:18:16.294Z,739.00
2023-05-01T06:19:16.292Z,718.00
2023-05-01T06:20:16.306Z,717.00
2023-05-01T06:21:16.428Z,711.00
2023-05-01T06:22:16.479Z,717.00
2023-05-01T06:23:16.516Z,700.00
2023-05-01T06:24:16.579Z,706.00
2023-05-01T06:25:16.664Z,685.00
2023-05-01T06:26:16.715Z,707.00
2023-05-01T06:27:16.764Z,705.00
2023-05-01T06:28:16.841Z,719.00
2023-05-01T06:29:16.935Z,715.00
2023-05-01T06:30:16.973Z,720.00
2023-05-01T06:31:17.133Z,748.00
2023-05-01T06:32:17.107Z,751.00
2023-05-01T06:33:17.173Z,725.00
2023-05-01T06:34:17.183Z,723.00
2023-05-01T06:35:17.224Z,688.00
2023-05-01T06:36:17.293Z,702.00
2023-05-01T06:37:17.324Z,726.00
2023-05-01T06:38:17.413Z,712.00
2023-05-01T06:39:17.442Z,727.00
2023-05-01T06:40:17.520Z,735.00
2023-05-01T06:41:17.559Z,716.00
2023-05-01T06:42:17.633Z,711.00
2023-05-01T06:43:17.692Z,691.00
2023-05-01T06:44:17.752Z,686.00
2023-05-01T06:45:17.791Z,696.00
2023-05-01T06:46:17.843Z,699.00
2023-05-01T06:47:17.914Z,686.00
2023-05-01T06:48:17.935Z,708.00
2023-05-01T06:49:17.985Z,674.00
2023-05-01T06:50:18.053Z,671.00
2023-05-01T06:51:18.150Z,647.00
2023-05-01T06:52:18.166Z,641.00
2023-05-01T06:53:18.232Z,638.00
2023-05-01T06:54:18.274Z,652.00
2023-05-01T06:55:18.338Z,653.00
2023-05-01T06:56:18.467Z,662.00
2023-05-01T06:57:18.634Z,694.00
2023-05-01T06:58:23.799Z,701.00
2023-05-01T06:59:19.488Z,678.00
2023-05-01T07:00:18.486Z,645.00
2023-05-01T07:01:18.506Z,627.00
2023-05-01T07:02:18.545Z,630.00
2023-05-01T07:03:18.579Z,633.00
2023-05-01T07:04:18.457Z,635.00
2023-05-01T07:05:18.441Z,618.00
2023-05-01T07:06:18.461Z,613.00
2023-05-01T07:07:18.459Z,613.00
2023-05-01T07:08:18.545Z,612.00
2023-05-01T07:09:18.640Z,585.00
2023-05-01T07:10:18.673Z,587.00
2023-05-01T07:11:18.684Z,611.00
2023-05-01T07:12:18.779Z,606.00
2023-05-01T07:13:18.823Z,599.00
2023-05-01T07:14:18.917Z,583.00
2023-05-01T07:15:18.948Z,568.00
2023-05-01T07:16:19.110Z,577.00
2023-05-01T07:17:19.021Z,565.00
2023-05-01T07:18:19.079Z,581.00
2023-05-01T07:19:19.149Z,583.00
2023-05-01T07:20:19.231Z,557.00
2023-05-01T07:21:19.242Z,546.00
2023-05-01T07:22:19.336Z,573.00
2023-05-01T07:23:19.373Z,555.00
2023-05-01T07:24:19.387Z,551.00
2023-05-01T07:25:19.514Z,521.00
2023-05-01T07:26:19.586Z,515.00
2023-05-01T07:27:19.623Z,524.00
2023-05-01T07:28:19.663Z,568.00
2023-05-01T07:29:19.718Z,596.00
2023-05-01T07:30:19.775Z,562.00
2023-05-01T07:31:19.948Z,560.00
2023-05-01T07:32:19.963Z,516.00
2023-05-01T07:33:20.081Z,510.00
2023-05-01T07:34:20.051Z,502.00
2023-05-01T07:35:20.098Z,503.00
2023-05-01T07:36:20.115Z,510.00
2023-05-01T07:37:20.221Z,518.00
2023-05-01T07:38:20.308Z,500.00
2023-05-01T07:39:20.326Z,508.00
2023-05-01T07:40:20.372Z,513.00
2023-05-01T07:41:20.489Z,538.00
2023-05-01T07:42:20.516Z,528.00
2023-05-01T07:43:20.557Z,521.00
2023-05-01T07:44:20.711Z,519.00
2023-05-01T07:45:20.712Z,546.00
2023-05-01T07:46:20.804Z,575.00
2023-05-01T07:47:20.790Z,558.00
2023-05-01T07:48:20.917Z,572.00
2023-05-01T07:49:20.982Z,545.00
2023-05-01T07:50:21.032Z,566.00
2023-05-01T07:51:21.124Z,551.00
2023-05-01T07:52:21.165Z,578.00
2023-05-01T07:53:21.209Z,576.00
2023-05-01T07:54:21.320Z,560.00
2023-05-01T07:55:21.331Z,551.00
2023-05-01T07:56:21.375Z,545.00
2023-05-01T07:57:21.447Z,550.00
2023-05-01T07:58:21.478Z,586.00
2023-05-01T07:59:21.560Z,609.00
2023-05-01T08:00:21.607Z,565.00
2023-05-01T08:01:21.681Z,556.00
2023-05-01T08:02:21.807Z,564.00
2023-05-01T08:03:22.116Z,602.00
2023-05-01T08:04:21.969Z,605.00
2023-05-01T08:05:21.883Z,607.00
2023-05-01T08:06:21.979Z,602.00
2023-05-01T08:07:22.017Z,591.00
2023-05-01T08:08:22.097Z,604.00
2023-05-01T08:09:22.080Z,618.00
2023-05-01T08:10:22.173Z,618.00
2023-05-01T08:11:22.199Z,629.00
2023-05-01T08:12:22.269Z,624.00
2023-05-01T08:13:22.341Z,636.00
2023-05-01T08:14:22.372Z,650.00
2023-05-01T08:15:22.396Z,618.00
2023-05-01T08:16:22.536Z,631.00
2023-05-01T08:17:22.554Z,621.00
2023-05-01T08:18:22.540Z,571.00
2023-05-01T08:19:22.629Z,548.00
2023-05-01T08:20:22.712Z,601.00
2023-05-01T08:21:22.744Z,597.00
2023-05-01T08:22:22.750Z,594.00
2023-05-01T08:23:22.792Z,602.00
2023-05-01T08:24:23.256Z,612.00
2023-05-01T08:25:22.944Z,628.00
2023-05-01T08:26:23.010Z,625.00
2023-05-01T08:27:23.006Z,625.00
2023-05-01T08:28:23.023Z,612.00
2023-05-01T08:29:23.107Z,615.00
2023-05-01T08:30:23.118Z,632.00
2023-05-01T08:31:23.181Z,612.00
2023-05-01T08:32:23.270Z,561.00
2023-05-01T08:33:23.249Z,538.00
2023-05-01T08:34:23.297Z,585.00
2023-05-01T08:35:23.351Z,593.00
2023-05-01T08:36:23.392Z,595.00
2023-05-01T08:37:23.474Z,578.00
2023-05-01T08:38:23.462Z,546.00
2023-05-01T08:39:23.498Z,578.00
2023-05-01T08:40:23.604Z,598.00
2023-05-01T08:41:23.590Z,612.00
2023-05-01T08:42:23.668Z,595.00
2023-05-01T08:43:23.722Z,579.00
2023-05-01T08:44:23.740Z,582.00
2023-05-01T08:45:23.825Z,589.00
2023-05-01T08:46:23.855Z,584.00
2023-05-01T08:47:23.905Z,587.00
2023-05-01T08:48:23.900Z,575.00
2023-05-01T08:49:23.979Z,579.00
2023-05-01T08:50:23.960Z,598.00
2023-05-01T08:51:24.022Z,570.00
2023-05-01T08:52:24.080Z,553.00
2023-05-01T08:53:24.121Z,562.00
2023-05-01T08:54:24.152Z,569.00
2023-05-01T08:55:24.212Z,569.00
2023-05-01T08:56:24.208Z,584.00
2023-05-01T08:57:24.499Z,602.00
2023-05-01T08:58:24.300Z,600.00
2023-05-01T08:59:24.327Z,608.00
2023-05-01T09:00:24.431Z,612.00
2023-05-01T09:01:24.483Z,599.00
2023-05-01T09:02:24.593Z,586.00
2023-05-01T09:03:24.623Z,550.00
2023-05-01T09:04:24.681Z,564.00
2023-05-01T09:05:24.584Z,539.00
2023-05-01T09:06:24.708Z,521.00
2023-05-01T09:07:24.669Z,513.00
2023-05-01T09:08:24.673Z,519.00
2023-05-01T09:09:24.727Z,530.00
2023-05-01T09:10:24.796Z,529.00
2023-05-01T09:11:24.762Z,545.00
2023-05-01T09:12:24.826Z,559.00
2023-05-01T09:13:24.837Z,577.00
2023-05-01T09:14:24.855Z,544.00
2023-05-01T09:15:24.920Z,551.00
2023-05-01T09:16:24.984Z,544.00
2023-05-01T09:17:25.091Z,521.00
2023-05-01T09:18:25.003Z,533.00
2023-05-01T09:19:25.027Z,564.00
2023-05-01T09:20:25.154Z,523.00
2023-05-01T09:21:25.120Z,520.00
2023-05-01T09:22:25.161Z,509.00
2023-05-01T09:23:25.167Z,524.00
2023-05-01T09:24:25.195Z,517.00
2023-05-01T09:25:25.201Z,520.00
2023-05-01T09:26:25.245Z,521.00
2023-05-01T09:27:25.285Z,555.00
2023-05-01T09:28:25.302Z,570.00
2023-05-01T09:29:25.306Z,561.00
2023-05-01T09:30:26.058Z,537.00
2023-05-01T09:31:25.452Z,537.00
2023-05-01T09:32:26.278Z,550.00
2023-05-01T09:33:25.488Z,554.00
2023-05-01T09:34:25.507Z,535.00
2023-05-01T09:35:25.474Z,531.00
2023-05-01T09:36:25.486Z,544.00
2023-05-01T09:37:25.524Z,565.00
2023-05-01T09:38:25.569Z,572.00
2023-05-01T09:39:25.605Z,552.00
2023-05-01T09:40:25.669Z,558.00
2023-05-01T09:41:25.688Z,558.00
2023-05-01T09:42:25.699Z,564.00
2023-05-01T09:43:25.690Z,570.00
2023-05-01T09:44:25.766Z,577.00
2023-05-01T09:45:25.806Z,563.00
2023-05-01T09:46:25.889Z,567.00
2023-05-01T09:47:25.853Z,560.00
2023-05-01T09:48:25.820Z,542.00
2023-05-01T09:49:25.848Z,535.00
2023-05-01T09:50:25.900Z,543.00
2023-05-01T09:51:25.897Z,553.00
2023-05-01T09:52:25.964Z,546.00
2023-05-01T09:53:25.978Z,541.00
2023-05-01T09:54:25.992Z,551.00
2023-05-01T09:55:26.119Z,555.00
2023-05-01T09:56:26.011Z,561.00
2023-05-01T09:57:26.057Z,552.00
2023-05-01T09:58:26.024Z,550.00
2023-05-01T09:59:26.065Z,552.00
2023-05-01T10:00:26.098Z,558.00
2023-05-01T10:01:26.125Z,555.00
2023-05-01T10:02:26.242Z,555.00
2023-05-01T10:03:26.253Z,553.00
2023-05-01T10:04:26.192Z,553.00
2023-05-01T10:05:26.217Z,545.00
2023-05-01T10:06:26.264Z,560.00
2023-05-01T10:07:26.261Z,552.00
2023-05-01T10:08:26.266Z,557.00
2023-05-01T10:09:26.306Z,572.00
2023-05-01T10:10:26.314Z,571.00
2023-05-01T10:11:26.307Z,567.00
2023-05-01T10:12:26.317Z,546.00
2023-05-01T10:13:26.354Z,551.00
2023-05-01T10:14:26.341Z,543.00
2023-05-01T10:15:27.098Z,551.00
2023-05-01T10:16:26.438Z,556.00
2023-05-01T10:17:26.480Z,555.00
2023-05-01T10:18:26.450Z,562.00
2023-05-01T10:19:26.403Z,563.00
2023-05-01T10:20:26.462Z,565.00
2023-05-01T10:21:26.462Z,565.00
2023-05-01T10:22:26.500Z,562.00
2023-05-01T10:23:26.476Z,563.00
2023-05-01T10:24:26.486Z,568.00
2023-05-01T10:25:26.480Z,559.00
2023-05-01T10:26:26.528Z,568.00
2023-05-01T10:27:26.565Z,572.00
2023-05-01T10:28:26.527Z,565.00
2023-05-01T10:29:26.571Z,560.00
2023-05-01T10:30:26.543Z,571.00
2023-05-01T10:31:26.637Z,575.00
2023-05-01T10:32:26.650Z,582.00
2023-05-01T10:33:26.573Z,575.00
2023-05-01T10:34:28.426Z,575.00
2023-05-01T10:35:26.687Z,578.00
2023-05-01T10:36:26.681Z,579.00
2023-05-01T10:37:26.693Z,564.00
2023-05-01T10:38:26.696Z,573.00
2023-05-01T10:39:26.715Z,564.00
2023-05-01T10:40:26.712Z,565.00
2023-05-01T10:41:26.714Z,570.00
2023-05-01T10:42:26.767Z,575.00
2023-05-01T10:43:26.709Z,557.00
2023-05-01T10:44:26.786Z,561.00
2023-05-01T10:45:26.748Z,561.00
2023-05-01T10:46:26.970Z,575.00
2023-05-01T10:47:26.837Z,569.00
2023-05-01T10:48:26.816Z,570.00
2023-05-01T10:49:26.835Z,564.00
2023-05-01T10:50:26.894Z,566.00
2023-05-01T10:51:28.029Z,569.00
2023-05-01T10:52:26.963Z,567.00
2023-05-01T10:53:26.916Z,576.00
2023-05-01T10:54:27.012Z,565.00
2023-05-01T10:55:26.953Z,538.00
2023-05-01T10:56:26.966Z,546.00
2023-05-01T10:57:26.970Z,554.00
2023-05-01T10:58:27.006Z,549.00
2023-05-01T10:59:26.989Z,554.00
2023-05-01T11:00:26.998Z,546.00
2023-05-01T11:01:27.102Z,540.00
2023-05-01T11:02:27.296Z,546.00
2023-05-01T11:03:27.083Z,543.00
2023-05-01T11:04:27.080Z,539.00
2023-05-01T11:05:37.931Z,531.00
2023-05-01T11:06:28.351Z,532.00
2023-05-01T11:07:27.123Z,534.00
2023-05-01T11:08:27.076Z,534.00
2023-05-01T11:09:27.088Z,538.00
2023-05-01T11:10:27.094Z,544.00
2023-05-01T11:11:27.070Z,547.00
2023-05-01T11:12:27.065Z,545.00
2023-05-01T11:13:27.043Z,532.00
2023-05-01T11:14:27.060Z,557.00
2023-05-01T11:15:27.136Z,552.00
2023-05-01T11:16:27.039Z,552.00
2023-05-01T11:17:27.091Z,547.00
2023-05-01T11:18:26.976Z,538.00
2023-05-01T11:19:29.290Z,537.00
2023-05-01T11:20:27.001Z,534.00
2023-05-01T11:21:27.038Z,531.00
2023-05-01T11:22:27.037Z,535.00
2023-05-01T11:23:27.052Z,541.00
2023-05-01T11:24:27.153Z,548.00
2023-05-01T11:25:27.051Z,545.00
2023-05-01T11:26:27.073Z,544.00
2023-05-01T11:27:27.071Z,552.00
2023-05-01T11:28:27.090Z,554.00
2023-05-01T11:29:27.082Z,536.00
2023-05-01T11:30:27.098Z,484.00
2023-05-01T11:31:27.208Z,536.00
2023-05-01T11:32:27.258Z,564.00
2023-05-01T11:33:27.113Z,568.00
2023-05-01T11:34:27.127Z,566.00
2023-05-01T11:35:27.146Z,559.00
2023-05-01T11:36:27.315Z,546.00
2023-05-01T11:37:27.145Z,531.00
2023-05-01T11:38:27.174Z,510.00
2023-05-01T11:39:27.168Z,516.00
2023-05-01T11:40:27.235Z,513.00
2023-05-01T11:41:27.179Z,511.00
2023-05-01T11:42:27.284Z,509.00
2023-05-01T11:43:27.222Z,536.00
2023-05-01T11:44:27.234Z,533.00
2023-05-01T11:45:27.227Z,521.00
2023-05-01T11:46:27.394Z,536.00
2023-05-01T11:47:27.311Z,519.00
2023-05-01T11:48:27.296Z,507.00
2023-05-01T11:49:27.289Z,508.00
2023-05-01T11:50:27.296Z,507.00
2023-05-01T11:51:27.309Z,503.00
2023-05-01T11:52:27.316Z,531.00
2023-05-01T11:53:27.293Z,536.00
2023-05-01T11:54:27.331Z,536.00
2023-05-01T11:55:27.342Z,540.00
2023-05-01T11:56:27.664Z,548.00
2023-05-01T11:57:27.347Z,500.00
2023-05-01T11:58:27.365Z,510.00
2023-05-01T11:59:27.365Z,524.00
2023-05-01T12:00:27.378Z,515.00
2023-05-01T12:01:27.381Z,525.00
2023-05-01T12:02:27.501Z,534.00
2023-05-01T12:03:27.527Z,533.00
2023-05-01T12:04:29.724Z,511.00
2023-05-01T12:05:27.385Z,511.00
2023-05-01T12:06:27.476Z,495.00
2023-05-01T12:07:27.426Z,514.00
2023-05-01T12:08:27.370Z,506.00
2023-05-01T12:09:27.375Z,527.00
2023-05-01T12:10:27.362Z,532.00
2023-05-01T12:11:27.349Z,489.00
2023-05-01T12:12:27.352Z,502.00
2023-05-01T12:13:27.358Z,505.00
2023-05-01T12:14:27.371Z,526.00
2023-05-01T12:15:27.359Z,523.00
2023-05-01T12:16:27.353Z,538.00
2023-05-01T12:17:27.410Z,538.00
2023-05-01T12:18:27.312Z,558.00
2023-05-01T12:19:27.313Z,575.00
2023-05-01T12:20:27.295Z,571.00
2023-05-01T12:21:27.322Z,574.00
2023-05-01T12:22:27.343Z,573.00
2023-05-01T12:23:27.254Z,560.00
2023-05-01T12:24:27.279Z,506.00
2023-05-01T12:25:27.269Z,507.00
2023-05-01T12:26:27.250Z,509.00
2023-05-01T12:27:27.258Z,525.00
2023-05-01T12:28:27.246Z,512.00